Time;durP1;ratioP1;P1;durP2;ratioP2;P2;SDS_P1;SDS_P2;PMS_P1;PMS_P2;Temp;Humidity;BMP_temperature;BMP_pressure;BME280_temperature;BME280_humidity;BME280_pressure;Samples;Min_cycle;Max_cycle;Signal;HPM_P1;HPM_P2
2022/07/14 00:02:03;;;;;;;;;;;;;;;17.15;50.72;101007.31;5057399;28;1179;-54
2022/07/14 00:04:29;;;;;;;;;;;;;;;17.14;50.02;100996.59;5056866;28;879;-55
2022/07/14 00:06:54;;;;;;;;;;;;;;;17.13;49.48;101008.72;5057135;28;1009;-53
2022/07/14 00:09:19;;;;;;;;;;;;;;;17.93;52.28;101008.22;5061040;28;1092;-51
2022/07/14 00:11:45;;;;;;;;;;;;;;;17.53;51.38;101001.59;5056557;28;1150;-53
2022/07/14 00:14:10;;;;;;;;;;;;;;;17.38;50.64;100997.75;5056435;28;1972;-53
2022/07/14 00:16:36;;;;;;;;;;;;;;;17.35;49.68;101005.69;5056168;28;994;-53
2022/07/14 00:19:01;;;;;;;;;;;;;;;17.30;48.86;101009.28;5058552;28;1020;-52
2022/07/14 00:21:27;;;;;;;;;;;;;;;17.25;48.76;101006.50;5052793;28;2513;-54
2022/07/14 00:23:52;;;;;;;;;;;;;;;17.29;48.98;101013.13;5054940;28;1064;-52
2022/07/14 00:26:17;;;;;;;;;;;;;;;16.64;53.69;101020.88;5056869;28;1005;-54
2022/07/14 00:28:43;;;;;;;;;;;;;;;16.54;56.94;101016.16;5056312;28;928;-52
2022/07/14 00:31:10;;;;;;;;;;;;;;;18.90;53.56;101012.63;5055690;28;969;-53
2022/07/14 00:33:36;;;;;;;;;;;;;;;15.14;61.22;101018.94;5037982;28;1906;-52
2022/07/14 00:36:01;;;;;;;;;;;;;;;16.60;55.10;101026.88;5056584;28;938;-51
2022/07/14 00:38:26;;;;;;;;;;;;;;;17.90;54.52;101019.75;5056463;28;1035;-53
2022/07/14 00:40:52;;;;;;;;;;;;;;;15.06;62.23;101023.75;5060840;28;911;-53
2022/07/14 00:43:17;;;;;;;;;;;;;;;18.47;55.42;101021.31;5056710;28;1064;-53
2022/07/14 00:45:43;;;;;;;;;;;;;;;15.76;60.68;101019.50;5046039;28;1198;-51
2022/07/14 00:48:08;;;;;;;;;;;;;;;17.09;59.60;101022.16;5056142;28;1068;-52
2022/07/14 00:50:34;;;;;;;;;;;;;;;18.71;55.29;101017.91;5037996;28;1108;-53
2022/07/14 00:53:03;;;;;;;;;;;;;;;14.81;63.86;101020.72;5057442;28;2302;-55
2022/07/14 00:55:28;;;;;;;;;;;;;;;18.09;57.70;101020.84;5040035;28;1375;-53
2022/07/14 00:57:54;;;;;;;;;;;;;;;16.35;60.49;101022.09;5038470;28;1145;-53
2022/07/14 01:00:19;;;;;;;;;;;;;;;16.48;61.01;101014.47;5056125;28;1008;-53
2022/07/14 01:02:45;;;;;;;;;;;;;;;18.73;55.94;101012.97;5062382;28;1123;-53
2022/07/14 01:05:10;;;;;;;;;;;;;;;14.84;63.07;101015.59;5056008;28;892;-53
2022/07/14 01:07:36;;;;;;;;;;;;;;;16.70;56.92;101017.88;5056119;28;1072;-53
2022/07/14 01:10:02;;;;;;;;;;;;;;;17.48;55.82;101010.66;5024428;28;1306;-54
2022/07/14 01:12:27;;;;;;;;;;;;;;;17.30;53.41;101020.28;5059865;28;1894;-55
2022/07/14 01:14:54;;;;;;;;;;;;;;;17.34;51.77;101021.38;5060315;28;1080;-52
2022/07/14 01:17:20;;;;;;;;;;;;;;;17.21;50.64;101021.91;5041317;28;933;-53
2022/07/14 01:19:48;;;;;;;;;;;;;;;17.17;50.02;101020.81;5059955;28;1068;-52
2022/07/14 01:22:13;;;;;;;;;;;;;;;17.11;49.70;101017.22;5047766;28;2411;-53
2022/07/14 01:24:39;;;;;;;;;;;;;;;17.92;51.27;101020.31;5041657;28;1355;-53
2022/07/14 01:27:04;;;;;;;;;;;;;;;15.32;58.14;101010.34;5065219;28;973;-54
2022/07/14 01:29:30;;;;;;;;;;;;;;;17.68;56.62;101020.03;5041090;28;1123;-55
2022/07/14 01:31:56;;;;;;;;;;;;;;;18.95;53.98;101014.53;5058775;28;1259;-53
2022/07/14 01:34:21;;;;;;;;;;;;;;;14.96;62.92;101012.69;5065404;28;1910;-52
2022/07/14 01:36:49;;;;;;;;;;;;;;;18.48;56.35;101011.09;5059798;28;1076;-53
2022/07/14 01:39:14;;;;;;;;;;;;;;;16.32;60.40;101011.66;5059334;28;1029;-53
2022/07/14 01:41:40;;;;;;;;;;;;;;;16.19;58.01;101010.22;5059621;28;1017;-53
2022/07/14 01:44:05;;;;;;;;;;;;;;;16.93;52.94;101021.28;5059767;28;993;-53
2022/07/14 01:46:31;;;;;;;;;;;;;;;17.61;53.67;101015.63;5025378;28;1145;-52
2022/07/14 01:48:57;;;;;;;;;;;;;;;15.85;59.20;101023.41;5041332;28;1217;-53
2022/07/14 01:51:24;;;;;;;;;;;;;;;17.07;59.38;101030.66;5042643;28;2513;-53
2022/07/14 01:53:50;;;;;;;;;;;;;;;19.00;54.93;101014.50;5041104;28;1913;-52
2022/07/14 01:56:15;;;;;;;;;;;;;;;14.81;63.52;101031.69;5041559;28;1233;-54
2022/07/14 01:58:41;;;;;;;;;;;;;;;16.70;55.00;101028.03;5041543;28;1163;-53
2022/07/14 02:03:55;;;;;;;;;;;;;;;17.43;53.96;101025.25;5031890;28;1196;-52
2022/07/14 02:06:20;;;;;;;;;;;;;;;17.42;51.75;101037.34;5041050;28;1500;-54
2022/07/14 02:08:46;;;;;;;;;;;;;;;17.33;50.60;101029.91;5041438;28;1142;-54
2022/07/14 02:13:56;;;;;;;;;;;;;;;17.28;50.03;101034.28;5058776;28;1918;-54
2022/07/14 02:16:21;;;;;;;;;;;;;;;17.25;54.05;101036.75;5058916;28;871;-51
2022/07/14 02:18:49;;;;;;;;;;;;;;;16.31;58.85;101031.13;5041005;28;1150;-54
2022/07/14 02:21:14;;;;;;;;;;;;;;;18.95;54.20;101036.56;5034980;28;2407;-53
2022/07/14 02:23:40;;;;;;;;;;;;;;;15.54;61.27;101034.94;5060268;28;1061;-55
2022/07/14 02:26:12;;;;;;;;;;;;;;;17.73;58.08;101045.59;5063235;28;973;-53
2022/07/14 02:28:38;;;;;;;;;;;;;;;18.42;55.78;101034.25;5058684;28;974;-55
2022/07/14 02:31:03;;;;;;;;;;;;;;;15.46;61.80;101045.53;5040698;28;1159;-55
2022/07/14 02:33:29;;;;;;;;;;;;;;;16.93;54.30;101043.28;5058203;28;1913;-55
2022/07/14 02:35:54;;;;;;;;;;;;;;;17.18;51.84;101044.44;5058407;28;1064;-55
2022/07/14 02:38:21;;;;;;;;;;;;;;;17.14;50.76;101037.81;5059615;28;1052;-51
2022/07/14 02:40:46;;;;;;;;;;;;;;;18.02;52.59;101038.75;5063037;28;990;-51
2022/07/14 02:43:12;;;;;;;;;;;;;;;17.53;52.06;101042.84;5040603;28;1100;-55
2022/07/14 02:45:37;;;;;;;;;;;;;;;17.36;50.70;101041.19;5058498;28;1100;-54
2022/07/14 02:48:05;;;;;;;;;;;;;;;17.33;49.68;101038.97;5032798;28;1096;-53
2022/07/14 02:50:31;;;;;;;;;;;;;;;17.26;49.27;101047.50;5040144;28;1144;-52
2022/07/14 02:52:56;;;;;;;;;;;;;;;17.22;48.73;101045.53;5058718;28;2801;-52
2022/07/14 02:55:22;;;;;;;;;;;;;;;17.19;48.18;101046.91;5040174;28;1135;-53
2022/07/14 02:57:48;;;;;;;;;;;;;;;17.52;51.35;101043.97;5040529;28;1118;-53
2022/07/14 03:00:13;;;;;;;;;;;;;;;15.70;58.29;101046.03;5037901;28;1115;-53
2022/07/14 03:02:40;;;;;;;;;;;;;;;18.65;53.60;101049.34;5039932;28;1298;-52
2022/07/14 03:05:06;;;;;;;;;;;;;;;15.45;60.36;101054.84;5057742;28;1028;-52
2022/07/14 03:07:32;;;;;;;;;;;;;;;17.79;57.08;101052.78;5040290;28;1211;-53
2022/07/14 03:09:58;;;;;;;;;;;;;;;18.84;54.17;101052.28;5040072;28;1088;-53
2022/07/14 03:12:24;;;;;;;;;;;;;;;15.12;62.21;101054.75;5039808;28;1980;-53
2022/07/14 03:14:49;;;;;;;;;;;;;;;18.61;55.86;101062.03;5039899;28;1544;-53
2022/07/14 03:17:16;;;;;;;;;;;;;;;16.16;60.70;101056.53;5057379;28;962;-55
2022/07/14 03:19:42;;;;;;;;;;;;;;;16.86;59.65;101059.97;5044579;28;1299;-58
2022/07/14 03:22:07;;;;;;;;;;;;;;;18.92;55.25;101059.19;5043406;28;2538;-56
2022/07/14 03:24:35;;;;;;;;;;;;;;;14.91;64.28;101059.19;5039566;28;1374;-55
2022/07/14 03:27:01;;;;;;;;;;;;;;;18.59;56.68;101064.22;5039979;28;1103;-55
2022/07/14 03:29:28;;;;;;;;;;;;;;;16.79;59.45;101061.28;5035787;28;1207;-55
2022/07/14 03:31:54;;;;;;;;;;;;;;;16.13;59.04;101063.41;5052113;28;1167;-54
2022/07/14 03:34:21;;;;;;;;;;;;;;;17.02;53.69;101069.09;5039048;28;1942;-52
2022/07/14 03:36:46;;;;;;;;;;;;;;;17.18;51.76;101066.41;5031143;28;1337;-56
2022/07/14 03:39:15;;;;;;;;;;;;;;;17.12;50.73;101062.00;5039911;28;1150;-58
2022/07/14 03:41:41;;;;;;;;;;;;;;;17.17;49.86;101073.84;5027208;28;1272;-57
2022/07/14 03:44:07;;;;;;;;;;;;;;;17.16;49.41;101066.69;5039611;28;1247;-55
2022/07/14 03:46:33;;;;;;;;;;;;;;;18.21;52.09;101078.34;5039047;28;1378;-57
2022/07/14 03:49:07;;;;;;;;;;;;;;;14.60;60.27;101069.69;5039481;28;1473;-56
2022/07/14 03:51:33;;;;;;;;;;;;;;;18.05;55.96;101074.78;5045015;28;2400;-55
2022/07/14 03:53:59;;;;;;;;;;;;;;;17.35;57.44;101078.00;5038162;28;1977;-54
2022/07/14 03:56:26;;;;;;;;;;;;;;;16.25;62.05;101071.44;5030047;28;1081;-57
2022/07/14 03:58:52;;;;;;;;;;;;;;;19.03;55.77;101071.81;5039162;28;1506;-58
2022/07/14 04:01:20;;;;;;;;;;;;;;;15.35;62.21;101083.78;5038802;28;1146;-57
2022/07/14 04:03:49;;;;;;;;;;;;;;;17.78;58.90;101091.53;5038983;28;1412;-57
2022/07/14 04:06:15;;;;;;;;;;;;;;;17.96;57.48;101084.69;5039201;28;1352;-58
2022/07/14 04:08:42;;;;;;;;;;;;;;;15.76;63.65;101090.78;5056746;28;1000;-54
2022/07/14 04:11:10;;;;;;;;;;;;;;;18.94;56.75;101084.50;5039034;28;1337;-55
2022/07/14 04:13:36;;;;;;;;;;;;;;;15.59;62.59;101088.97;5043821;28;1973;-57
2022/07/14 04:16:01;;;;;;;;;;;;;;;17.15;60.02;101086.19;5056625;28;982;-53
2022/07/14 04:18:32;;;;;;;;;;;;;;;18.17;57.16;101081.94;5043084;28;1136;-56
2022/07/14 04:20:59;;;;;;;;;;;;;;;15.24;63.24;101082.03;5039705;28;2481;-51
2022/07/14 04:23:26;;;;;;;;;;;;;;;18.41;58.13;101098.69;5039631;28;1426;-55
2022/07/14 04:25:51;;;;;;;;;;;;;;;15.72;62.59;101085.81;5056308;28;1020;-53
2022/07/14 04:28:18;;;;;;;;;;;;;;;17.20;61.21;101086.22;5038869;28;1214;-55
2022/07/14 04:30:45;;;;;;;;;;;;;;;18.68;56.71;101087.34;5038957;28;1302;-57
2022/07/14 04:33:11;;;;;;;;;;;;;;;15.03;65.25;101098.22;5038664;28;1957;-54
2022/07/14 04:35:37;;;;;;;;;;;;;;;18.52;58.12;101089.28;5040890;28;1325;-54
2022/07/14 04:38:03;;;;;;;;;;;;;;;16.32;61.49;101096.72;5038946;28;1092;-56
2022/07/14 04:40:34;;;;;;;;;;;;;;;16.29;58.86;101094.50;5038560;28;1263;-57
2022/07/14 04:43:01;;;;;;;;;;;;;;;17.01;54.26;101099.59;5056602;28;873;-53
2022/07/14 04:45:28;;;;;;;;;;;;;;;17.09;52.13;101090.84;5037479;28;1907;-55
2022/07/14 04:47:53;;;;;;;;;;;;;;;17.15;51.16;101097.19;5038325;28;1204;-57
2022/07/14 04:53:04;;;;;;;;;;;;;;;17.09;50.17;101088.09;5042603;28;2583;-56
2022/07/14 04:55:41;;;;;;;;;;;;;;;17.05;49.61;101093.28;5038807;28;1124;-56
2022/07/14 04:58:17;;;;;;;;;;;;;;;17.11;49.50;101099.66;5038458;28;1117;-56
2022/07/14 05:00:43;;;;;;;;;;;;;;;17.98;52.52;101101.78;5038264;28;1188;-58
2022/07/14 05:03:08;;;;;;;;;;;;;;;15.52;60.70;101100.13;5037905;28;1045;-55
2022/07/14 05:05:34;;;;;;;;;;;;;;;18.59;55.36;101094.53;5038347;28;1148;-56
2022/07/14 05:07:59;;;;;;;;;;;;;;;15.92;61.08;101095.31;5038014;28;1348;-57
2022/07/14 05:10:32;;;;;;;;;;;;;;;17.45;59.27;101105.50;5038329;28;1163;-56
2022/07/14 05:12:58;;;;;;;;;;;;;;;18.95;55.28;101097.19;5038363;28;1978;-55
2022/07/14 05:15:24;;;;;;;;;;;;;;;15.18;63.58;101094.00;5038501;28;1111;-53
2022/07/14 05:17:51;;;;;;;;;;;;;;;18.57;57.32;101102.25;5041058;28;1513;-53
2022/07/14 05:20:17;;;;;;;;;;;;;;;16.40;61.12;101098.97;5041102;28;1213;-54
2022/07/14 05:22:44;;;;;;;;;;;;;;;16.69;61.10;101098.63;5057045;28;2497;-55
2022/07/14 05:25:12;;;;;;;;;;;;;;;18.89;56.25;101098.34;5038211;28;1158;-55
2022/07/14 05:27:38;;;;;;;;;;;;;;;14.95;64.49;101106.88;5025298;28;1318;-54
2022/07/14 05:30:05;;;;;;;;;;;;;;;17.99;58.90;101117.16;5040447;28;1212;-54
2022/07/14 05:32:30;;;;;;;;;;;;;;;16.69;60.16;101104.09;5037502;28;1979;-52
2022/07/14 05:34:57;;;;;;;;;;;;;;;16.08;60.64;101101.78;5053403;28;1077;-53
2022/07/14 05:37:23;;;;;;;;;;;;;;;18.71;56.80;101100.56;5056780;28;1008;-54
2022/07/14 05:39:48;;;;;;;;;;;;;;;15.02;63.66;101112.97;5037522;28;2465;-57
2022/07/14 05:42:14;;;;;;;;;;;;;;;17.33;59.18;101110.41;5043697;28;1158;-55
2022/07/14 05:44:40;;;;;;;;;;;;;;;17.19;59.10;101104.59;5038058;28;1353;-53
2022/07/14 05:47:05;;;;;;;;;;;;;;;15.72;62.60;101115.97;5037953;28;1308;-54
2022/07/14 05:49:31;;;;;;;;;;;;;;;18.73;56.91;101103.88;5023795;28;1390;-54
2022/07/14 05:51:58;;;;;;;;;;;;;;;15.77;62.75;101106.13;5030912;28;2410;-55
2022/07/14 05:54:23;;;;;;;;;;;;;;;17.76;58.23;101102.00;5027299;28;1913;-57
2022/07/14 05:56:48;;;;;;;;;;;;;;;17.82;57.33;101108.31;5056053;28;1009;-55
2022/07/14 05:59:14;;;;;;;;;;;;;;;17.73;57.53;101106.13;5041299;28;1160;-56
2022/07/14 06:01:39;;;;;;;;;;;;;;;17.73;57.00;101100.63;5041514;28;1228;-56
2022/07/14 06:04:05;;;;;;;;;;;;;;;17.67;57.00;101096.22;5059329;28;966;-56
2022/07/14 06:06:31;;;;;;;;;;;;;;;17.65;56.91;101101.16;5040613;28;1131;-53
2022/07/14 06:08:56;;;;;;;;;;;;;;;17.63;56.71;101100.59;5041017;28;1255;-52
2022/07/14 06:11:22;;;;;;;;;;;;;;;17.61;56.93;101105.53;5041390;28;1237;-57
2022/07/14 06:13:48;;;;;;;;;;;;;;;17.54;56.52;101096.72;5058880;28;1906;-56
2022/07/14 06:16:15;;;;;;;;;;;;;;;17.55;56.55;101104.72;5040559;28;1199;-52
2022/07/14 06:18:41;;;;;;;;;;;;;;;17.48;56.87;101097.84;5040651;28;1371;-54
2022/07/14 06:21:08;;;;;;;;;;;;;;;17.45;56.56;101088.19;5040540;28;1886;-54
2022/07/14 06:23:33;;;;;;;;;;;;;;;17.44;56.45;101086.53;5033837;28;1021;-55
2022/07/14 06:26:00;;;;;;;;;;;;;;;17.43;56.35;101085.72;5041234;28;1175;-55
2022/07/14 06:28:33;;;;;;;;;;;;;;;17.38;56.56;101099.44;5040928;28;1296;-55
2022/07/14 06:30:59;;;;;;;;;;;;;;;17.33;56.38;101093.94;5039979;28;1099;-56
2022/07/14 06:33:25;;;;;;;;;;;;;;;17.32;56.43;101085.97;5040782;28;1910;-55
2022/07/14 06:35:53;;;;;;;;;;;;;;;17.31;56.52;101087.06;5040524;28;1086;-51
2022/07/14 06:38:18;;;;;;;;;;;;;;;17.28;56.50;101085.69;5040784;28;1104;-55
2022/07/14 06:40:44;;;;;;;;;;;;;;;17.24;56.46;101085.41;5040907;28;1409;-57
2022/07/14 06:43:09;;;;;;;;;;;;;;;17.21;56.46;101088.69;5033071;28;949;-52
2022/07/14 06:45:42;;;;;;;;;;;;;;;17.22;56.41;101084.00;5040674;28;1354;-55
2022/07/14 06:48:07;;;;;;;;;;;;;;;17.19;56.62;101074.38;5040337;28;1162;-53
2022/07/14 06:50:33;;;;;;;;;;;;;;;17.14;56.46;101074.38;5029129;28;1179;-53
2022/07/14 06:52:58;;;;;;;;;;;;;;;17.18;56.22;101074.66;5060820;28;2602;-55
2022/07/14 06:55:23;;;;;;;;;;;;;;;17.09;56.63;101064.19;5058904;28;1144;-55
2022/07/14 06:57:50;;;;;;;;;;;;;;;17.15;56.57;101066.94;5058396;28;1068;-56
2022/07/14 07:00:16;;;;;;;;;;;;;;;17.10;56.50;101067.78;5058094;28;1017;-56
2022/07/14 07:02:41;;;;;;;;;;;;;;;17.07;56.71;101069.13;5058706;28;1037;-58
2022/07/14 07:07:51;;;;;;;;;;;;;;;17.05;56.61;101063.06;5059945;28;977;-55
2022/07/14 07:10:17;;;;;;;;;;;;;;;17.08;56.42;101062.56;5058053;28;1041;-55
2022/07/14 07:12:42;;;;;;;;;;;;;;;17.04;56.52;101055.94;5057603;28;1898;-55
2022/07/14 07:15:08;;;;;;;;;;;;;;;17.01;56.67;101053.75;5058055;28;1008;-54
2022/07/14 07:17:33;;;;;;;;;;;;;;;16.99;56.58;101053.16;5057956;28;1151;-55
2022/07/14 07:20:00;;;;;;;;;;;;;;;16.97;56.68;101047.13;5058678;28;855;-53
2022/07/14 07:22:25;;;;;;;;;;;;;;;16.99;56.54;101053.16;5063391;28;1866;-52
2022/07/14 07:24:51;;;;;;;;;;;;;;;17.00;56.39;101049.34;5058205;28;1274;-53
2022/07/14 07:27:16;;;;;;;;;;;;;;;16.95;56.53;101048.50;5057532;28;989;-53
2022/07/14 07:29:41;;;;;;;;;;;;;;;16.90;56.72;101049.28;5057358;28;1033;-54
2022/07/14 07:32:07;;;;;;;;;;;;;;;16.94;56.38;101053.13;5057325;28;1187;-55
2022/07/14 07:34:36;;;;;;;;;;;;;;;16.90;56.49;101052.88;5057511;28;1914;-56
2022/07/14 07:37:02;;;;;;;;;;;;;;;16.92;56.39;101052.59;5061858;28;958;-56
2022/07/14 07:39:27;;;;;;;;;;;;;;;16.91;56.48;101057.28;5058446;28;1008;-56
2022/07/14 07:41:55;;;;;;;;;;;;;;;16.91;56.65;101061.94;5029292;28;1212;-56
2022/07/14 07:44:21;;;;;;;;;;;;;;;16.89;56.41;101058.63;5057848;28;893;-56
2022/07/14 07:46:46;;;;;;;;;;;;;;;16.91;56.48;101056.44;5059909;28;1376;-56
2022/07/14 07:49:12;;;;;;;;;;;;;;;16.90;56.45;101060.25;5057473;28;1116;-56
2022/07/14 07:51:38;;;;;;;;;;;;;;;16.83;56.70;101049.53;5058741;28;2510;-56
2022/07/14 07:54:05;;;;;;;;;;;;;;;16.88;56.49;101051.44;5056750;28;1910;-56
2022/07/14 07:56:31;;;;;;;;;;;;;;;16.84;56.64;101050.34;5056939;28;1211;-55
2022/07/14 07:58:56;;;;;;;;;;;;;;;16.83;56.45;101049.53;5065687;28;1000;-55
2022/07/14 08:01:22;;;;;;;;;;;;;;;16.86;56.42;101050.91;5060077;28;1009;-56
2022/07/14 08:03:47;;;;;;;;;;;;;;;16.81;56.66;101039.91;5057036;28;1044;-55
2022/07/14 08:06:12;;;;;;;;;;;;;;;16.84;56.39;101053.09;5056833;28;993;-56
2022/07/14 08:08:38;;;;;;;;;;;;;;;16.83;56.70;101059.66;5060253;28;1029;-56
2022/07/14 08:11:03;;;;;;;;;;;;;;;16.78;56.36;101052.25;5057027;28;1179;-53
2022/07/14 08:13:29;;;;;;;;;;;;;;;16.79;56.63;101042.06;5056328;28;1913;-56
2022/07/14 08:15:57;;;;;;;;;;;;;;;16.79;56.53;101047.56;5056848;28;1100;-56
2022/07/14 08:18:22;;;;;;;;;;;;;;;16.79;56.61;101050.31;5055836;28;835;-57
2022/07/14 08:20:49;;;;;;;;;;;;;;;16.76;56.62;101043.44;5056830;28;950;-55
2022/07/14 08:23:15;;;;;;;;;;;;;;;16.75;56.55;101034.38;5061482;28;2920;-56
2022/07/14 08:25:40;;;;;;;;;;;;;;;16.73;56.70;101039.31;5056654;28;1044;-56
2022/07/14 08:28:06;;;;;;;;;;;;;;;16.75;56.63;101037.13;5060734;28;1244;-56
2022/07/14 08:30:31;;;;;;;;;;;;;;;16.73;56.41;101028.34;5056280;28;1053;-56
2022/07/14 08:32:56;;;;;;;;;;;;;;;16.72;56.39;101026.69;5056690;28;1913;-56
2022/07/14 08:35:23;;;;;;;;;;;;;;;16.71;56.48;101032.44;5054651;28;1124;-56
2022/07/14 08:37:49;;;;;;;;;;;;;;;16.73;56.52;101025.59;5056127;28;985;-55
2022/07/14 08:40:15;;;;;;;;;;;;;;;16.67;56.66;101028.56;5056413;28;1017;-56
2022/07/14 08:42:41;;;;;;;;;;;;;;;16.68;56.46;101025.56;5055951;28;1079;-55
2022/07/14 08:45:07;;;;;;;;;;;;;;;16.71;56.55;101016.78;5056883;28;1040;-56
2022/07/14 08:47:34;;;;;;;;;;;;;;;16.69;56.60;101026.38;5057790;28;1060;-56
2022/07/14 08:49:59;;;;;;;;;;;;;;;16.75;56.52;101019.81;5056112;28;1076;-56
2022/07/14 08:52:25;;;;;;;;;;;;;;;16.70;56.46;101014.31;5039245;28;2522;-57
2022/07/14 08:54:50;;;;;;;;;;;;;;;16.65;56.70;101015.13;5056065;28;1021;-56
2022/07/14 08:57:16;;;;;;;;;;;;;;;16.70;56.52;101017.06;5029069;28;1049;-55
2022/07/14 08:59:41;;;;;;;;;;;;;;;16.68;56.43;101013.75;5055872;28;1032;-52
2022/07/14 09:02:07;;;;;;;;;;;;;;;16.68;56.37;101000.84;5056383;28;989;-58
2022/07/14 09:04:32;;;;;;;;;;;;;;;16.64;56.62;100999.72;5056245;28;1073;-58
2022/07/14 09:06:58;;;;;;;;;;;;;;;16.65;56.40;101004.13;5056029;28;1088;-58
2022/07/14 09:09:24;;;;;;;;;;;;;;;16.67;56.55;100998.38;5058089;28;1252;-56
2022/07/14 09:11:53;;;;;;;;;;;;;;;16.65;56.56;101004.13;5053058;28;1307;-56
2022/07/14 09:14:19;;;;;;;;;;;;;;;16.65;56.38;100993.16;5056702;28;1906;-56
2022/07/14 09:16:44;;;;;;;;;;;;;;;16.64;56.74;101004.41;5055321;28;980;-55
2022/07/14 09:19:12;;;;;;;;;;;;;;;16.64;56.93;100996.16;5059247;28;1280;-56
2022/07/14 09:21:38;;;;;;;;;;;;;;;16.64;56.49;100997.00;5055002;28;1873;-57
2022/07/14 09:24:07;;;;;;;;;;;;;;;16.67;56.52;100998.38;5038006;28;1056;-56
2022/07/14 09:26:33;;;;;;;;;;;;;;;16.65;56.62;100992.31;5059580;28;1453;-60
2022/07/14 09:29:00;;;;;;;;;;;;;;;16.68;56.53;100981.63;5037647;28;1268;-55
2022/07/14 09:31:29;;;;;;;;;;;;;;;16.70;56.50;100992.34;5059563;28;1509;-56
2022/07/14 09:33:58;;;;;;;;;;;;;;;16.64;56.63;100991.50;5056899;28;2017;-56
2022/07/14 09:36:28;;;;;;;;;;;;;;;16.64;56.50;100983.25;5060661;28;1205;-59
2022/07/14 09:39:12;;;;;;;;;;;;;;;16.64;56.51;100980.50;5058015;28;1351;-60
2022/07/14 09:41:54;;;;;;;;;;;;;;;16.63;56.68;100978.84;5060550;28;1316;-59
2022/07/14 09:44:20;;;;;;;;;;;;;;;16.65;56.53;100976.69;5065198;28;1203;-60
2022/07/14 09:46:47;;;;;;;;;;;;;;;16.61;56.92;100975.56;5065355;28;1211;-59
2022/07/14 09:49:13;;;;;;;;;;;;;;;16.67;56.51;100979.97;5066952;28;1449;-59
2022/07/14 09:51:52;;;;;;;;;;;;;;;16.62;56.67;100971.72;5061811;28;2019;-57
2022/07/14 09:54:36;;;;;;;;;;;;;;;16.62;56.52;100969.00;5062282;28;1909;-55
2022/07/14 09:57:01;;;;;;;;;;;;;;;16.65;56.74;100973.94;5058290;28;1230;-56
2022/07/14 09:59:27;;;;;;;;;;;;;;;16.62;56.79;100974.47;5032946;28;1216;-57
2022/07/14 10:01:53;;;;;;;;;;;;;;;16.61;56.74;100975.56;5058530;28;1220;-56
2022/07/14 10:04:20;;;;;;;;;;;;;;;16.66;56.52;100972.00;5030100;28;1159;-56
2022/07/14 10:06:45;;;;;;;;;;;;;;;16.67;56.52;100968.16;5044291;28;1418;-57
2022/07/14 10:09:11;;;;;;;;;;;;;;;16.76;56.86;100970.13;5029445;28;1391;-59
2022/07/14 10:11:36;;;;;;;;;;;;;;;16.60;57.65;100968.41;5030159;28;1148;-57
2022/07/14 10:14:02;;;;;;;;;;;;;;;16.56;57.56;100965.41;5043918;28;1985;-56
2022/07/14 10:16:34;;;;;;;;;;;;;;;16.55;57.90;100962.91;5041264;28;1362;-58
2022/07/14 10:19:00;;;;;;;;;;;;;;;16.61;57.71;100959.09;5059164;28;946;-57
2022/07/14 10:21:25;;;;;;;;;;;;;;;16.69;57.46;100968.72;5063739;28;1990;-55
2022/07/14 10:23:51;;;;;;;;;;;;;;;16.68;57.49;100954.16;5032967;28;1375;-59
2022/07/14 10:26:16;;;;;;;;;;;;;;;16.77;57.45;100949.81;5059802;28;1144;-56
2022/07/14 10:28:42;;;;;;;;;;;;;;;16.77;57.14;100958.06;5063059;28;1081;-56
2022/07/14 10:31:13;;;;;;;;;;;;;;;16.80;57.10;100953.09;5058722;28;1057;-55
2022/07/14 10:33:39;;;;;;;;;;;;;;;16.77;57.57;100960.81;5061678;28;1906;-57
2022/07/14 10:36:23;;;;;;;;;;;;;;;16.81;57.54;100958.31;5061133;28;972;-56
2022/07/14 10:38:58;;;;;;;;;;;;;;;16.77;57.51;100952.56;5042494;28;1235;-55
2022/07/14 10:41:27;;;;;;;;;;;;;;;16.91;57.63;100946.56;5058118;28;1005;-55
2022/07/14 10:44:05;;;;;;;;;;;;;;;16.94;57.87;100948.75;5059112;28;1120;-55
2022/07/14 10:46:34;;;;;;;;;;;;;;;16.83;57.81;100936.91;5057308;28;1209;-57
2022/07/14 10:48:59;;;;;;;;;;;;;;;16.93;57.67;100930.66;5057748;28;1260;-55
2022/07/14 10:51:28;;;;;;;;;;;;;;;16.93;57.53;100939.72;5037055;28;1975;-56
2022/07/14 10:54:10;;;;;;;;;;;;;;;16.80;57.92;100940.19;5065189;28;2004;-59
2022/07/14 10:56:36;;;;;;;;;;;;;;;16.69;58.68;100933.84;5059126;28;1355;-57
2022/07/14 10:59:20;;;;;;;;;;;;;;;16.67;58.62;100935.22;5061154;28;1169;-57
2022/07/14 11:02:04;;;;;;;;;;;;;;;16.63;58.80;100929.44;5062634;28;949;-57
2022/07/14 11:04:48;;;;;;;;;;;;;;;16.65;58.52;100927.25;5062931;28;942;-58
2022/07/14 11:07:33;;;;;;;;;;;;;;;16.59;58.81;100918.19;5057843;28;1065;-57
2022/07/14 11:09:58;;;;;;;;;;;;;;;16.72;58.34;100919.59;5060144;28;1207;-57
2022/07/14 11:12:24;;;;;;;;;;;;;;;16.82;58.19;100931.69;5056555;28;2180;-55
2022/07/14 11:14:49;;;;;;;;;;;;;;;16.84;58.13;100918.50;5062479;28;1901;-56
2022/07/14 11:17:34;;;;;;;;;;;;;;;16.96;58.14;100921.00;5057770;28;1188;-57
2022/07/14 11:19:59;;;;;;;;;;;;;;;17.00;58.08;100916.63;5059900;28;973;-57
2022/07/14 11:22:25;;;;;;;;;;;;;;;16.94;57.86;100918.53;5056250;28;1387;-56
2022/07/14 11:24:54;;;;;;;;;;;;;;;16.89;57.86;100913.88;5059061;28;1490;-57
2022/07/14 11:27:36;;;;;;;;;;;;;;;16.92;57.53;100904.28;5056302;28;1213;-58
2022/07/14 11:30:18;;;;;;;;;;;;;;;16.87;57.52;100902.31;5058016;28;1233;-57
2022/07/14 11:32:43;;;;;;;;;;;;;;;16.89;57.37;100904.81;5055597;28;1985;-56
2022/07/14 11:37:57;;;;;;;;;;;;;;;16.84;57.19;100902.03;5055345;28;1375;-58
2022/07/14 11:40:43;;;;;;;;;;;;;;;16.85;57.43;100896.25;5039547;28;1180;-61
2022/07/14 11:43:27;;;;;;;;;;;;;;;16.89;57.26;100893.84;5056737;28;1334;-60
2022/07/14 11:45:53;;;;;;;;;;;;;;;16.83;57.46;100886.63;5051625;28;1248;-58
2022/07/14 11:48:18;;;;;;;;;;;;;;;16.83;57.38;100889.38;5056586;28;1156;-59
2022/07/14 11:50:44;;;;;;;;;;;;;;;16.84;57.30;100880.06;5035712;28;1353;-59
2022/07/14 11:53:10;;;;;;;;;;;;;;;16.80;57.36;100890.75;5035529;28;1974;-59
2022/07/14 11:55:37;;;;;;;;;;;;;;;16.81;57.18;100892.41;5056879;28;1391;-58
2022/07/14 11:58:03;;;;;;;;;;;;;;;16.80;57.26;100893.50;5056352;28;927;-59
2022/07/14 12:00:28;;;;;;;;;;;;;;;16.84;57.28;100885.56;5031377;28;982;-59
2022/07/14 12:02:54;;;;;;;;;;;;;;;16.85;56.93;100881.72;5055913;28;1228;-59
2022/07/14 12:05:20;;;;;;;;;;;;;;;16.81;57.11;100881.41;5052870;28;1157;-59
2022/07/14 12:07:49;;;;;;;;;;;;;;;16.80;57.06;100882.50;5054481;28;1192;-59
2022/07/14 12:10:15;;;;;;;;;;;;;;;16.81;57.13;100886.09;5058704;28;1021;-60
2022/07/14 12:12:41;;;;;;;;;;;;;;;16.79;57.08;100886.38;5057159;28;1973;-60
2022/07/14 12:15:07;;;;;;;;;;;;;;;16.80;56.91;100885.25;5056464;28;1029;-58
2022/07/14 12:17:34;;;;;;;;;;;;;;;16.75;56.99;100882.53;5057163;28;1030;-58
2022/07/14 12:20:00;;;;;;;;;;;;;;;16.80;56.88;100884.44;5038271;28;1187;-57
2022/07/14 12:22:25;;;;;;;;;;;;;;;16.79;57.11;100877.28;5052550;28;1330;-60
2022/07/14 12:24:50;;;;;;;;;;;;;;;16.75;57.05;100872.34;5056086;28;1390;-59
2022/07/14 12:27:16;;;;;;;;;;;;;;;16.78;56.96;100871.00;5040737;28;1069;-57
2022/07/14 12:29:45;;;;;;;;;;;;;;;16.74;57.19;100878.94;5057012;28;1398;-61
2022/07/14 12:32:11;;;;;;;;;;;;;;;16.75;57.20;100888.81;5035375;28;1099;-53
2022/07/14 12:34:36;;;;;;;;;;;;;;;16.72;57.28;100886.63;5057446;28;1913;-56
2022/07/14 12:37:02;;;;;;;;;;;;;;;16.72;57.00;100888.56;5032661;28;1285;-55
2022/07/14 12:39:27;;;;;;;;;;;;;;;16.75;57.12;100888.81;5038885;28;1383;-55
2022/07/14 12:41:53;;;;;;;;;;;;;;;16.72;57.14;100883.88;5054906;28;1505;-56
2022/07/14 12:44:18;;;;;;;;;;;;;;;16.75;56.82;100877.84;5054779;28;1375;-55
2022/07/14 12:46:44;;;;;;;;;;;;;;;16.71;57.29;100879.47;5060679;28;1280;-56
2022/07/14 12:49:09;;;;;;;;;;;;;;;16.71;57.17;100882.22;5056764;28;1241;-56
2022/07/14 12:51:43;;;;;;;;;;;;;;;16.74;57.24;100892.66;5060201;28;1169;-55
2022/07/14 12:54:12;;;;;;;;;;;;;;;16.71;57.29;100882.22;5056668;28;1902;-55
2022/07/14 12:56:44;;;;;;;;;;;;;;;16.70;57.14;100890.75;5056840;28;1215;-56
2022/07/14 12:59:11;;;;;;;;;;;;;;;16.70;57.28;100886.06;5037617;28;1316;-56
2022/07/14 13:01:43;;;;;;;;;;;;;;;16.71;57.52;100897.88;5055241;28;1260;-56